Time;durP1;ratioP1;P1;durP2;ratioP2;P2;SDS_P1;SDS_P2;PMS_P1;PMS_P2;Temp;Humidity;BMP_temperature;BMP_pressure;BME280_temperature;BME280_humidity;BME280_pressure;Samples;Min_cycle;Max_cycle;Signal;HPM_P1;HPM_P2
2021/12/03 00:01:11;;;;;;;7.35;4.28;;;5.00;99.90;;;;;;5047802;28;19920;-78
2021/12/03 00:03:37;;;;;;;6.82;3.83;;;5.10;99.90;;;;;;5048591;28;20036;-77
2021/12/03 00:06:02;;;;;;;;;;;5.00;99.90;;;;;;5048808;28;20025;-77
2021/12/03 00:08:28;;;;;;;4.82;1.02;;;5.10;99.90;;;;;;5049325;28;20447;-76
2021/12/03 00:10:57;;;;;;;2.55;1.00;;;5.00;99.90;;;;;;5049776;28;20033;-76
2021/12/03 00:13:25;;;;;;;9.00;2.47;;;5.00;99.90;;;;;;5049644;28;20440;-77
2021/12/03 00:15:52;;;;;;;3.80;1.55;;;5.00;99.90;;;;;;5048022;28;20037;-77
2021/12/03 00:18:18;;;;;;;3.92;1.48;;;5.00;99.90;;;;;;5049299;28;20029;-77
2021/12/03 00:20:44;;;;;;;;;;;5.00;99.90;;;;;;5050212;28;20048;-77
2021/12/03 00:23:10;;;;;;;3.08;1.60;;;5.00;99.90;;;;;;5048471;28;19912;-76
2021/12/03 00:25:36;;;;;;;;;;;5.00;99.90;;;;;;5048373;28;20127;-77
2021/12/03 00:28:03;;;;;;;4.60;2.10;;;5.00;99.90;;;;;;5048472;28;19912;-77
2021/12/03 00:30:28;;;;;;;6.07;2.58;;;5.00;99.90;;;;;;5048692;28;20028;-77
2021/12/03 00:32:54;;;;;;;;;;;5.10;99.90;;;;;;5049278;28;20033;-77
2021/12/03 00:35:20;;;;;;;5.70;2.35;;;5.00;99.90;;;;;;5051084;28;19956;-77
2021/12/03 00:37:48;;;;;;;3.75;1.83;;;5.00;99.90;;;;;;5050741;28;20033;-78
2021/12/03 00:40:17;;;;;;;3.28;1.38;;;5.00;99.90;;;;;;5051994;28;20025;-78
2021/12/03 00:42:43;;;;;;;6.70;3.17;;;5.00;99.90;;;;;;5050068;28;20401;-77
2021/12/03 00:45:09;;;;;;;;;;;5.00;99.90;;;;;;5052506;28;20044;-77
2021/12/03 00:47:35;;;;;;;17.87;7.33;;;5.00;99.90;;;;;;5050806;28;19944;-77
2021/12/03 00:50:01;;;;;;;;;;;5.00;99.90;;;;;;5056144;28;20448;-77
2021/12/03 00:52:26;;;;;;;7.65;3.80;;;5.00;99.90;;;;;;5048410;28;20431;-77
2021/12/03 00:54:52;;;;;;;;;;;4.90;99.90;;;;;;5048003;28;20768;-76
2021/12/03 00:57:18;;;;;;;14.38;6.47;;;4.90;99.90;;;;;;5047357;28;19992;-76
2021/12/03 00:59:43;;;;;;;;;;;4.90;99.90;;;;;;5047052;28;20091;-77
2021/12/03 01:02:09;;;;;;;5.35;2.67;;;4.90;99.90;;;;;;5047835;28;19920;-77
2021/12/03 01:04:34;;;;;;;;;;;4.90;99.90;;;;;;5047884;28;20025;-77
2021/12/03 01:07:00;;;;;;;4.18;1.90;;;4.90;99.90;;;;;;5049217;28;19973;-77
2021/12/03 01:09:26;;;;;;;;;;;5.00;99.90;;;;;;5050640;28;20029;-77
2021/12/03 01:11:52;;;;;;;6.93;2.78;;;5.00;99.90;;;;;;5049283;28;19948;-78
2021/12/03 01:14:18;;;;;;;;;;;4.90;99.90;;;;;;5050501;28;20140;-78
2021/12/03 01:16:45;;;;;;;4.50;1.35;;;5.00;99.90;;;;;;5049567;28;19916;-77
2021/12/03 01:19:10;;;;;;;2.60;1.05;;;4.90;99.90;;;;;;5051315;28;20643;-78
2021/12/03 01:21:37;;;;;;;;;;;4.90;99.90;;;;;;5048930;28;20048;-76
2021/12/03 01:24:03;;;;;;;0.82;0.40;;;5.00;99.90;;;;;;5051164;28;19905;-78
2021/12/03 01:26:30;;;;;;;1.30;0.50;;;5.00;99.90;;;;;;5051262;28;20564;-77
2021/12/03 01:28:55;;;;;;;1.40;0.50;;;5.00;99.90;;;;;;5049741;28;20028;-78
2021/12/03 01:31:21;;;;;;;;;;;5.00;99.90;;;;;;5052958;28;20029;-78
2021/12/03 01:33:47;;;;;;;1.88;0.90;;;5.00;99.90;;;;;;5052731;28;19986;-78
2021/12/03 01:36:14;;;;;;;1.85;0.80;;;5.00;99.90;;;;;;5056502;28;20021;-78
2021/12/03 01:38:40;;;;;;;1.42;0.70;;;5.00;99.90;;;;;;5056766;28;20089;-78
2021/12/03 01:41:05;;;;;;;;;;;5.00;99.90;;;;;;5057477;28;20569;-78
2021/12/03 01:43:31;;;;;;;1.77;0.70;;;5.10;99.90;;;;;;5057886;28;19943;-79
2021/12/03 01:46:01;;;;;;;;;;;5.10;99.90;;;;;;5058666;28;20056;-77
2021/12/03 01:48:27;;;;;;;2.20;1.15;;;5.00;99.90;;;;;;5057370;28;19991;-77
2021/12/03 01:50:53;;;;;;;4.22;1.85;;;5.00;99.90;;;;;;5059538;28;20055;-78
2021/12/03 01:53:25;;;;;;;3.55;1.80;;;5.00;99.90;;;;;;5058001;28;20328;-77
2021/12/03 01:55:53;;;;;;;1.75;0.98;;;5.00;99.90;;;;;;5053868;28;20033;-78
2021/12/03 01:58:19;;;;;;;2.17;0.63;;;5.10;99.90;;;;;;5052700;28;20052;-78
2021/12/03 02:00:47;;;;;;;;;;;5.20;99.90;;;;;;5054118;28;20072;-77
2021/12/03 02:03:14;;;;;;;1.73;0.70;;;5.20;99.90;;;;;;5053298;28;19977;-78
2021/12/03 02:05:42;;;;;;;1.55;0.70;;;5.20;99.90;;;;;;5052997;28;20098;-78
2021/12/03 02:08:08;;;;;;;3.45;1.33;;;5.10;99.90;;;;;;5052946;28;20029;-78
2021/12/03 02:10:34;;;;;;;5.05;1.48;;;5.10;99.90;;;;;;5053936;28;20036;-78
2021/12/03 02:13:00;;;;;;;2.42;0.85;;;5.10;99.90;;;;;;5053777;28;20139;-78
2021/12/03 02:15:26;;;;;;;;;;;5.10;99.90;;;;;;5055712;28;20075;-78
2021/12/03 02:17:51;;;;;;;1.58;0.80;;;5.10;99.90;;;;;;5060407;28;19909;-78
2021/12/03 02:20:18;;;;;;;2.92;1.20;;;5.10;99.90;;;;;;5051014;28;20102;-77
2021/12/03 02:22:44;;;;;;;1.48;0.70;;;5.10;99.90;;;;;;5050843;28;20132;-78
2021/12/03 02:25:20;;;;;;;2.33;0.80;;;5.00;99.90;;;;;;5052130;28;20097;-78
2021/12/03 02:27:53;;;;;;;1.02;0.55;;;5.10;99.90;;;;;;5050683;28;20118;-78
2021/12/03 02:30:21;;;;;;;1.63;0.55;;;5.00;99.90;;;;;;5050132;28;20049;-78
2021/12/03 02:32:49;;;;;;;3.65;1.65;;;5.00;99.90;;;;;;5052758;28;20025;-78
2021/12/03 02:35:16;;;;;;;5.53;2.75;;;5.00;99.90;;;;;;5049973;28;20025;-78
2021/12/03 02:37:42;;;;;;;4.47;2.05;;;5.00;99.90;;;;;;5052312;28;20459;-78
2021/12/03 02:40:08;;;;;;;;;;;5.00;99.90;;;;;;5051917;28;20112;-77
2021/12/03 02:42:35;;;;;;;2.75;1.08;;;5.00;99.90;;;;;;5052051;28;20011;-78
2021/12/03 02:45:01;;;;;;;1.20;0.50;;;5.00;99.90;;;;;;5049838;28;20738;-77
2021/12/03 02:47:26;;;;;;;1.05;0.55;;;5.10;99.90;;;;;;5050371;28;20568;-78
2021/12/03 02:49:52;;;;;;;;;;;5.20;99.90;;;;;;5052385;28;20112;-77
2021/12/03 02:52:18;;;;;;;1.25;0.32;;;5.30;99.90;;;;;;5051385;28;19912;-78
2021/12/03 02:54:44;;;;;;;0.95;0.50;;;5.30;99.90;;;;;;5051247;28;20108;-78
2021/12/03 02:57:09;;;;;;;;;;;5.30;99.90;;;;;;5052492;28;20033;-78
2021/12/03 02:59:35;;;;;;;0.40;0.20;;;5.30;99.90;;;;;;5050500;28;20278;-78
2021/12/03 03:02:01;;;;;;;;;;;5.30;99.90;;;;;;5050836;28;20230;-78
2021/12/03 03:04:27;;;;;;;1.13;0.50;;;5.30;99.90;;;;;;5051096;28;20444;-80
2021/12/03 03:06:52;;;;;;;;;;;5.30;99.90;;;;;;5052238;28;20029;-78
2021/12/03 03:09:18;;;;;;;1.23;0.63;;;5.30;99.90;;;;;;5051679;28;20332;-78
2021/12/03 03:11:44;;;;;;;;;;;5.30;99.90;;;;;;5051356;28;20032;-77
2021/12/03 03:14:10;;;;;;;1.38;0.50;;;5.20;99.90;;;;;;5051746;28;19909;-78
2021/12/03 03:16:35;;;;;;;;;;;5.20;99.90;;;;;;5052690;28;20064;-79
2021/12/03 03:19:19;;;;;;;3.47;0.60;;;5.20;99.90;;;;;;5052205;28;19919;-79
2021/12/03 03:21:46;;;;;;;1.33;0.55;;;5.20;99.90;;;;;;5052396;28;20025;-78
2021/12/03 03:24:12;;;;;;;1.08;0.50;;;5.20;99.90;;;;;;5052511;28;20497;-77
2021/12/03 03:26:40;;;;;;;0.70;0.40;;;5.10;99.90;;;;;;5051959;28;20115;-78
2021/12/03 03:29:09;;;;;;;0.65;0.35;;;5.20;99.90;;;;;;5054224;28;20033;-78
2021/12/03 03:31:37;;;;;;;0.52;0.35;;;5.10;99.90;;;;;;5053457;28;20525;-77
2021/12/03 03:34:04;;;;;;;0.77;0.40;;;5.20;99.90;;;;;;5054113;28;20048;-77
2021/12/03 03:36:34;;;;;;;1.08;0.60;;;5.10;99.90;;;;;;5051782;28;20509;-76
2021/12/03 03:39:00;;;;;;;0.80;0.40;;;5.10;99.90;;;;;;5053705;28;20059;-78
2021/12/03 03:41:25;;;;;;;;;;;5.10;99.90;;;;;;5054426;28;20033;-78
2021/12/03 03:43:51;;;;;;;0.60;0.30;;;5.10;99.90;;;;;;5053565;28;19915;-78
2021/12/03 03:46:17;;;;;;;;;;;5.10;99.90;;;;;;5064815;28;20041;-78
2021/12/03 03:48:43;;;;;;;0.40;0.30;;;5.10;99.90;;;;;;5053089;28;19915;-78
2021/12/03 03:51:08;;;;;;;;;;;5.10;99.90;;;;;;5051124;28;20028;-77
2021/12/03 03:53:35;;;;;;;1.52;0.50;;;5.10;99.90;;;;;;5051123;28;19908;-77
2021/12/03 03:56:01;;;;;;;1.52;0.55;;;5.10;99.90;;;;;;5051256;28;20391;-78
2021/12/03 03:58:26;;;;;;;;;;;5.10;99.90;;;;;;5051756;28;20044;-78
2021/12/03 04:00:52;;;;;;;1.25;0.40;;;5.20;99.90;;;;;;5052776;28;19920;-78
2021/12/03 04:03:17;;;;;;;;;;;5.20;99.90;;;;;;5051623;28;20029;-78
2021/12/03 04:05:43;;;;;;;2.38;0.90;;;5.30;99.90;;;;;;5052685;28;19904;-77
2021/12/03 04:08:09;;;;;;;;;;;5.30;99.90;;;;;;5051662;28;20401;-78
2021/12/03 04:10:35;;;;;;;5.20;2.30;;;5.30;99.90;;;;;;5051714;28;19905;-78
2021/12/03 04:13:00;;;;;;;;;;;5.30;99.90;;;;;;5053807;28;20029;-78
2021/12/03 04:15:26;;;;;;;10.38;4.18;;;5.30;99.90;;;;;;5052816;28;19944;-77
2021/12/03 04:17:52;;;;;;;;;;;5.30;99.90;;;;;;5053607;28;20036;-78
2021/12/03 04:20:19;;;;;;;8.82;4.38;;;5.30;99.90;;;;;;5052963;28;19912;-77
2021/12/03 04:22:45;;;;;;;1.70;0.63;;;5.30;99.90;;;;;;5051504;28;20715;-77
2021/12/03 04:25:12;;;;;;;;;;;5.30;99.90;;;;;;5053457;28;20445;-78
2021/12/03 04:27:38;;;;;;;5.70;2.25;;;5.30;99.90;;;;;;5055885;28;19904;-78
2021/12/03 04:30:06;;;;;;;5.90;3.92;;;5.30;99.90;;;;;;5054949;28;20032;-77
2021/12/03 04:32:32;;;;;;;8.75;5.32;;;5.20;99.90;;;;;;5052310;28;20033;-77
2021/12/03 04:34:57;;;;;;;;;;;5.20;99.90;;;;;;5048927;28;20029;-78
2021/12/03 04:37:23;;;;;;;5.90;2.95;;;5.10;99.90;;;;;;5048678;28;19924;-77
2021/12/03 04:39:49;;;;;;;;;;;5.10;99.90;;;;;;5049478;28;20086;-78
2021/12/03 04:42:14;;;;;;;29.02;11.43;;;5.10;99.90;;;;;;5049110;28;19917;-78
2021/12/03 04:44:40;;;;;;;;;;;5.10;99.90;;;;;;5049155;28;20547;-77
2021/12/03 04:47:06;;;;;;;12.43;5.65;;;5.10;99.90;;;;;;5048425;28;20350;-77
2021/12/03 04:49:32;;;;;;;22.20;8.77;;;5.10;99.90;;;;;;5048150;28;20519;-78
2021/12/03 04:51:58;;;;;;;;;;;5.10;99.90;;;;;;5049112;28;20052;-78
2021/12/03 04:54:24;;;;;;;29.92;12.23;;;5.00;99.90;;;;;;5050569;28;19991;-78
2021/12/03 04:56:49;;;;;;;;;;;5.00;99.90;;;;;;5050324;28;20357;-78
2021/12/03 04:59:15;;;;;;;4.32;1.85;;;4.90;99.90;;;;;;5049369;28;20616;-78
2021/12/03 05:01:41;;;;;;;;;;;4.90;99.90;;;;;;5049897;28;20049;-78
2021/12/03 05:04:07;;;;;;;5.15;2.53;;;4.90;99.90;;;;;;5051717;28;19967;-78
2021/12/03 05:09:17;;;;;;;5.93;2.47;;;4.90;99.90;;;;;;5050989;28;20004;-79
2021/12/03 05:11:42;;;;;;;;;;;4.80;99.90;;;;;;5052445;28;20057;-78
2021/12/03 05:14:08;;;;;;;15.43;8.75;;;4.80;99.90;;;;;;5056239;28;19904;-79
2021/12/03 05:16:34;;;;;;;;;;;4.70;99.90;;;;;;5052280;28;20028;-79
2021/12/03 05:18:59;;;;;;;26.67;14.65;;;4.70;99.90;;;;;;5048708;28;19911;-77
2021/12/03 05:21:25;;;;;;;;;;;4.60;99.90;;;;;;5047548;28;20132;-78
2021/12/03 05:23:50;;;;;;;21.15;10.02;;;4.60;99.90;;;;;;5048731;28;19916;-78
2021/12/03 05:26:16;;;;;;;;;;;4.60;99.90;;;;;;5047540;28;20087;-78
2021/12/03 05:28:41;;;;;;;11.05;5.28;;;4.60;99.90;;;;;;5048803;28;20442;-78
2021/12/03 05:31:07;;;;;;;;;;;4.60;99.90;;;;;;5048744;28;20549;-78
2021/12/03 05:33:33;;;;;;;9.82;5.70;;;4.50;99.90;;;;;;5047007;28;20289;-78
2021/12/03 05:35:58;;;;;;;;;;;4.50;99.90;;;;;;5048028;28;20401;-78
2021/12/03 05:38:24;;;;;;;16.73;10.65;;;4.60;99.90;;;;;;5049479;28;19920;-77
2021/12/03 05:40:49;;;;;;;;;;;4.60;99.90;;;;;;5047833;28;20496;-79
2021/12/03 05:43:16;;;;;;;16.67;10.75;;;4.60;99.90;;;;;;5046468;28;19920;-78
2021/12/03 05:45:42;;;;;;;16.35;10.30;;;4.60;99.90;;;;;;5047381;28;20097;-78
2021/12/03 05:48:07;;;;;;;;;;;4.60;99.90;;;;;;5047770;28;20119;-78
2021/12/03 05:50:33;;;;;;;14.52;7.50;;;4.70;99.90;;;;;;5047851;28;20030;-77
2021/12/03 05:53:00;;;;;;;;;;;4.60;99.90;;;;;;5047365;28;20029;-78
2021/12/03 05:55:26;;;;;;;11.07;4.28;;;4.80;99.90;;;;;;5046058;28;20293;-78
2021/12/03 05:57:51;;;;;;;;;;;4.60;99.90;;;;;;5048615;28;20586;-78
2021/12/03 06:00:29;;;;;;;6.05;3.22;;;4.50;99.90;;;;;;5049598;28;19995;-79
2021/12/03 06:02:57;;;;;;;7.38;3.90;;;4.40;99.90;;;;;;5047757;28;20044;-79
2021/12/03 06:05:24;;;;;;;8.30;4.47;;;4.40;99.90;;;;;;5048415;28;20055;-78
2021/12/03 06:07:50;;;;;;;6.97;3.55;;;4.30;99.90;;;;;;5047045;28;20535;-77
2021/12/03 06:10:16;;;;;;;;;;;4.30;99.90;;;;;;5048632;28;20047;-79
2021/12/03 06:12:43;;;;;;;8.45;3.83;;;4.30;99.90;;;;;;5047962;28;20374;-79
2021/12/03 06:15:09;;;;;;;7.53;4.55;;;4.30;99.90;;;;;;5047921;28;20029;-78
2021/12/03 06:17:35;;;;;;;10.07;5.05;;;4.30;99.90;;;;;;5047104;28;20822;-77
2021/12/03 06:20:00;;;;;;;;;;;4.30;99.90;;;;;;5049726;28;20025;-78
2021/12/03 06:22:26;;;;;;;9.70;6.10;;;4.30;99.90;;;;;;5051364;28;19917;-78
2021/12/03 06:24:52;;;;;;;;;;;4.30;99.90;;;;;;5053635;28;20029;-79
2021/12/03 06:27:17;;;;;;;9.30;4.88;;;4.30;99.90;;;;;;5053251;28;19908;-79
2021/12/03 06:29:43;;;;;;;;;;;4.30;99.90;;;;;;5051764;28;20025;-77
2021/12/03 06:32:10;;;;;;;9.63;5.32;;;4.40;99.90;;;;;;5052956;28;19970;-79
2021/12/03 06:34:37;;;;;;;9.43;5.20;;;4.40;99.90;;;;;;5052608;28;20021;-79
2021/12/03 06:37:03;;;;;;;11.65;7.97;;;4.40;99.90;;;;;;5054493;28;20037;-79
2021/12/03 06:39:29;;;;;;;;;;;4.40;99.90;;;;;;5054454;28;20473;-78
2021/12/03 06:41:55;;;;;;;18.85;7.80;;;4.40;99.90;;;;;;5053155;28;20034;-77
2021/12/03 06:44:21;;;;;;;;;;;4.40;99.90;;;;;;5055260;28;20037;-77
2021/12/03 06:46:47;;;;;;;19.63;9.35;;;4.40;99.90;;;;;;5052488;28;19955;-78
2021/12/03 06:49:12;;;;;;;;;;;4.40;99.90;;;;;;5052736;28;20024;-78
2021/12/03 06:51:42;;;;;;;12.18;8.38;;;4.50;99.90;;;;;;5051381;28;19905;-78
2021/12/03 06:54:09;;;;;;;33.67;15.02;;;4.50;99.90;;;;;;5051076;28;20361;-78
2021/12/03 06:56:47;;;;;;;33.05;19.10;;;4.60;99.90;;;;;;5051612;28;20025;-78
2021/12/03 06:59:17;;;;;;;68.45;30.38;;;4.60;99.90;;;;;;5054291;28;20489;-79
2021/12/03 07:01:43;;;;;;;20.98;10.48;;;4.50;99.90;;;;;;5054250;28;20036;-78
2021/12/03 07:04:08;;;;;;;;;;;4.50;99.90;;;;;;5055170;28;20531;-79
2021/12/03 07:06:34;;;;;;;45.10;20.92;;;4.50;99.90;;;;;;5056043;28;19947;-78
2021/12/03 07:09:00;;;;;;;32.72;16.30;;;4.50;99.90;;;;;;5054631;28;20033;-79
2021/12/03 07:11:26;;;;;;;;;;;4.60;99.90;;;;;;5051320;28;20032;-78
2021/12/03 07:13:52;;;;;;;35.25;16.85;;;4.60;99.90;;;;;;5048989;28;19916;-78
2021/12/03 07:16:17;;;;;;;;;;;4.60;99.90;;;;;;5049082;28;20500;-79
2021/12/03 07:18:43;;;;;;;32.80;16.75;;;4.60;99.90;;;;;;5049623;28;20384;-78
2021/12/03 07:21:09;;;;;;;;;;;4.70;99.90;;;;;;5050047;28;20044;-77
2021/12/03 07:23:35;;;;;;;34.78;17.35;;;4.70;99.90;;;;;;5047765;28;20003;-78
2021/12/03 07:26:02;;;;;;;54.60;25.13;;;4.80;99.90;;;;;;5048635;28;20039;-77
2021/12/03 07:28:28;;;;;;;51.30;23.20;;;4.80;99.90;;;;;;5047971;28;20037;-78
2021/12/03 07:30:54;;;;;;;38.30;18.48;;;4.80;99.90;;;;;;5047615;28;20029;-78
2021/12/03 07:33:20;;;;;;;;;;;4.90;99.90;;;;;;5047859;28;20044;-79
2021/12/03 07:35:46;;;;;;;27.20;14.48;;;4.90;99.90;;;;;;5049263;28;19916;-78
2021/12/03 07:38:13;;;;;;;;;;;4.90;99.90;;;;;;5050779;28;20021;-78
2021/12/03 07:40:38;;;;;;;19.98;12.32;;;5.00;99.90;;;;;;5049709;28;19908;-77
2021/12/03 07:43:04;;;;;;;;;;;5.00;99.90;;;;;;5049001;28;20094;-78
2021/12/03 07:45:30;;;;;;;18.02;10.38;;;5.10;99.90;;;;;;5048397;28;19936;-79
2021/12/03 07:47:55;;;;;;;;;;;5.20;99.90;;;;;;5048455;28;20033;-78
2021/12/03 07:50:21;;;;;;;15.75;9.07;;;5.30;99.90;;;;;;5048564;28;19956;-78
2021/12/03 07:52:47;;;;;;;;;;;5.30;99.90;;;;;;5050326;28;20036;-78
2021/12/03 07:55:13;;;;;;;11.88;7.60;;;5.40;99.90;;;;;;5048050;28;19905;-78
2021/12/03 07:57:39;;;;;;;;;;;5.40;99.90;;;;;;5048310;28;20032;-78
2021/12/03 08:00:07;;;;;;;16.23;8.48;;;5.40;99.90;;;;;;5047141;28;19963;-78
2021/12/03 08:02:32;;;;;;;15.40;9.30;;;5.50;99.90;;;;;;5048367;28;20041;-78
2021/12/03 08:04:58;;;;;;;;;;;5.50;99.90;;;;;;5041681;28;20604;-78
2021/12/03 08:07:24;;;;;;;15.50;9.20;;;5.50;99.90;;;;;;5028635;28;19970;-78
2021/12/03 08:09:50;;;;;;;;;;;5.50;99.90;;;;;;5028633;28;20125;-78
2021/12/03 08:12:16;;;;;;;16.13;8.35;;;5.60;99.90;;;;;;5032184;28;19909;-78
2021/12/03 08:14:41;;;;;;;;;;;5.60;99.90;;;;;;5048781;28;20029;-78
2021/12/03 08:17:07;;;;;;;12.63;7.15;;;5.60;99.90;;;;;;5049655;28;20487;-78
2021/12/03 08:19:33;;;;;;;;;;;5.60;99.90;;;;;;5048539;28;20033;-78
2021/12/03 08:21:59;;;;;;;13.65;7.47;;;5.60;99.90;;;;;;5050042;28;21001;-78
2021/12/03 08:24:24;;;;;;;;;;;5.60;99.90;;;;;;5049277;28;20029;-79
2021/12/03 08:26:50;;;;;;;13.57;6.30;;;5.60;99.90;;;;;;5048667;28;20062;-77
2021/12/03 08:29:15;;;;;;;;;;;5.60;99.90;;;;;;5049336;28;20036;-78
2021/12/03 08:31:41;;;;;;;19.15;9.48;;;5.60;99.90;;;;;;5046904;28;19920;-79
2021/12/03 08:34:08;;;;;;;;;;;5.60;99.90;;;;;;5048883;28;20052;-79
2021/12/03 08:36:34;;;;;;;18.83;8.88;;;5.70;99.90;;;;;;5047735;28;19909;-78
2021/12/03 08:38:59;;;;;;;;;;;5.70;99.90;;;;;;5049187;28;20082;-76
2021/12/03 08:41:26;;;;;;;13.45;8.27;;;5.80;99.90;;;;;;5050939;28;20460;-76
2021/12/03 08:43:51;;;;;;;13.70;6.38;;;6.00;99.90;;;;;;5048505;28;20061;-76
2021/12/03 08:46:35;;;;;;;;;;;6.20;99.90;;;;;;5051103;28;20102;-77
2021/12/03 08:49:08;;;;;;;9.98;4.43;;;6.40;99.90;;;;;;5048960;28;19908;-77
2021/12/03 08:56:52;;;;;;;9.27;4.13;;;6.60;99.90;;;;;;5051543;28;20044;-77
2021/12/03 08:59:18;;;;;;;;;;;6.60;99.90;;;;;;5052113;28;20440;-77
2021/12/03 09:01:44;;;;;;;13.02;4.97;;;6.60;99.90;;;;;;5049289;28;20313;-76
2021/12/03 09:04:13;;;;;;;13.30;4.68;;;6.70;99.90;;;;;;5050715;28;20457;-77
2021/12/03 09:06:39;;;;;;;12.63;5.03;;;6.60;99.90;;;;;;5052203;28;20102;-76
2021/12/03 09:09:08;;;;;;;;;;;6.60;97.90;;;;;;5052623;28;20477;-76
2021/12/03 09:11:37;;;;;;;11.88;4.95;;;6.50;99.90;;;;;;5052947;28;20369;-76
2021/12/03 09:14:13;;;;;;;16.17;4.70;;;6.50;99.90;;;;;;5052233;28;20033;-77
2021/12/03 09:16:38;;;;;;;10.95;4.45;;;6.50;99.90;;;;;;5052636;28;20401;-76
2021/12/03 09:19:10;;;;;;;;;;;6.50;99.90;;;;;;5051372;28;20785;-77
2021/12/03 09:21:36;;;;;;;15.65;5.18;;;6.50;99.90;;;;;;5051048;28;20020;-77
2021/12/03 09:24:11;;;;;;;;;;;6.50;99.90;;;;;;5051066;28;20083;-78
2021/12/03 09:26:40;;;;;;;10.75;2.65;;;6.40;99.90;;;;;;5051460;28;20159;-76
2021/12/03 09:29:08;;;;;;;11.02;2.72;;;6.50;99.90;;;;;;5051584;28;20523;-76
2021/12/03 09:31:36;;;;;;;5.70;2.17;;;6.50;99.90;;;;;;5052184;28;20025;-77
2021/12/03 09:34:05;;;;;;;8.38;2.17;;;6.60;99.90;;;;;;5052235;28;20047;-76
2021/12/03 09:36:31;;;;;;;5.00;2.13;;;6.50;96.40;;;;;;5052895;28;20021;-78
2021/12/03 09:38:57;;;;;;;5.85;2.60;;;6.50;97.20;;;;;;5052701;28;20025;-77
2021/12/03 09:41:22;;;;;;;;;;;6.50;99.90;;;;;;5053685;28;20035;-77
2021/12/03 09:43:52;;;;;;;6.72;2.22;;;6.50;98.70;;;;;;5054333;28;19909;-77
2021/12/03 09:46:23;;;;;;;5.68;2.78;;;6.40;94.40;;;;;;5055290;28;20054;-77
2021/12/03 09:51:43;;;;;;;6.50;1.67;;;6.30;94.60;;;;;;5049600;28;20502;-77
2021/12/03 09:56:38;;;;;;;5.05;1.85;;;6.00;93.10;;;;;;5052728;28;20032;-77
2021/12/03 10:15:27;;;;;;;4.30;1.50;;;6.30;92.20;;;;;;5053005;28;20021;-78
2021/12/03 10:20:29;;;;;;;3.40;1.48;;;6.60;96.80;;;;;;5052740;28;20029;-77
2021/12/03 10:34:57;;;;;;;2.72;0.85;;;6.50;79.80;;;;;;5053110;28;20292;-76
2021/12/03 10:40:48;;;;;;;3.47;0.88;;;6.30;72.50;;;;;;5051322;28;20495;-77
2021/12/03 10:43:52;;;;;;;3.00;0.90;;;6.20;73.80;;;;;;5049873;28;20041;-78
2021/12/03 10:46:37;;;;;;;2.22;0.80;;;6.20;72.50;;;;;;5049863;28;20037;-77
2021/12/03 12:40:24;;;;;;;58.83;23.25;;;5.60;64.90;;;;;;5029645;28;20179;-79
2021/12/03 13:10:38;;;;;;;23.60;12.60;;;5.40;64.20;;;;;;5030186;28;20556;-77
2021/12/03 14:46:07;;;;;;;26.83;14.77;;;3.50;91.20;;;;;;5035454;28;20513;-78
2021/12/03 14:54:13;;;;;;;41.72;16.77;;;3.30;92.00;;;;;;5036113;28;20037;-78
2021/12/03 14:56:40;;;;;;;45.40;16.08;;;3.20;93.50;;;;;;5035783;28;20047;-78
2021/12/03 14:59:16;;;;;;;42.63;15.35;;;3.10;93.90;;;;;;5038361;28;20402;-79
2021/12/03 15:02:04;;;;;;;25.70;12.43;;;3.10;94.40;;;;;;5039461;28;20534;-78
2021/12/03 15:05:34;;;;;;;21.48;10.85;;;3.00;94.40;;;;;;5035325;28;20056;-78
2021/12/03 15:07:32;;;;;;;31.38;15.30;;;2.90;94.70;;;;;;5033799;28;20080;-79
2021/12/03 15:10:00;;;;;;;28.73;14.55;;;2.90;95.90;;;;;;5029344;28;20032;-78
2021/12/03 15:21:00;;;;;;;582.78;268.25;;;2.70;97.00;;;;;;5030000;28;20038;-78
2021/12/03 16:04:00;;;;;;;36.88;16.75;;;1.30;99.90;;;;;;5049833;28;19923;-78
2021/12/03 16:06:34;;;;;;;39.47;18.80;;;1.20;99.90;;;;;;5047572;28;20524;-77
2021/12/03 16:11:58;;;;;;;16.88;8.90;;;1.10;99.90;;;;;;5048837;28;20037;-79
2021/12/03 16:20:16;;;;;;;9.02;4.50;;;1.20;99.90;;;;;;5050940;28;20037;-77
2021/12/03 16:25:19;;;;;;;17.33;8.65;;;1.00;99.90;;;;;;5050293;28;20040;-77
2021/12/03 16:44:04;;;;;;;38.05;13.95;;;1.10;99.90;;;;;;5050295;28;20044;-77
2021/12/03 16:46:44;;;;;;;38.88;15.13;;;1.10;99.90;;;;;;5047598;28;20033;-76
2021/12/03 16:50:03;;;;;;;92.25;33.25;;;1.10;99.90;;;;;;5047817;28;20486;-76
2021/12/03 16:51:57;;;;;;;47.67;17.93;;;1.00;99.90;;;;;;5046537;28;20071;-75
2021/12/03 16:54:41;;;;;;;49.03;20.30;;;0.90;99.90;;;;;;5047587;28;20482;-76
2021/12/03 16:57:09;;;;;;;62.45;23.10;;;0.80;99.90;;;;;;5046965;28;20170;-76
2021/12/03 16:59:34;;;;;;;78.40;26.83;;;0.80;99.90;;;;;;5048179;28;20052;-77
2021/12/03 17:31:00;;;;;;;35.75;16.48;;;0.10;99.90;;;;;;5048643;28;20036;-77
2021/12/03 17:49:56;;;;;;;41.33;19.00;;;0.00;99.90;;;;;;5047735;28;20044;-76
2021/12/03 18:00:27;;;;;;;41.67;19.92;;;-0.20;99.90;;;;;;5047358;28;20476;-75
2021/12/03 18:02:57;;;;;;;27.13;14.88;;;-0.20;99.90;;;;;;5046542;28;20049;-77
2021/12/03 18:48:29;;;;;;;94.03;36.17;;;-0.90;99.90;;;;;;5031899;28;20036;-79
2021/12/03 18:56:19;;;;;;;113.38;53.33;;;-0.90;99.90;;;;;;5030407;28;20426;-77
2021/12/03 18:58:46;;;;;;;147.23;59.78;;;-1.00;99.90;;;;;;5029587;28;20410;-77
2021/12/03 19:01:13;;;;;;;119.75;53.25;;;-1.00;99.90;;;;;;5029431;28;20041;-77
2021/12/03 19:04:07;;;;;;;143.30;65.78;;;-1.10;99.90;;;;;;5029544;28;20044;-77
2021/12/03 19:09:38;;;;;;;22.20;9.32;;;-1.10;99.90;;;;;;5018021;28;20037;-78
2021/12/03 19:12:15;;;;;;;22.08;10.63;;;-1.00;99.90;;;;;;5029652;28;20520;-78
2021/12/03 19:14:48;;;;;;;24.55;10.93;;;-1.00;99.90;;;;;;5029332;28;20053;-78
2021/12/03 19:17:14;;;;;;;49.90;24.50;;;-1.00;99.90;;;;;;5029858;28;20471;-77
2021/12/03 19:19:44;;;;;;;73.35;33.30;;;-1.10;99.90;;;;;;5029995;28;20022;-78
2021/12/03 19:22:11;;;;;;;98.70;48.08;;;-1.10;99.90;;;;;;5029020;28;20041;-78
2021/12/03 19:24:37;;;;;;;110.07;52.40;;;-1.10;99.90;;;;;;5030796;28;20025;-78
2021/12/03 19:27:04;;;;;;;108.10;53.17;;;-1.10;99.90;;;;;;5028635;28;20525;-79
2021/12/03 19:29:33;;;;;;;97.93;49.67;;;-1.20;99.90;;;;;;5029083;28;20670;-78
2021/12/03 19:31:59;;;;;;;100.25;47.10;;;-1.10;99.90;;;;;;5029515;28;20514;-78
2021/12/03 19:34:24;;;;;;;;;;;-1.20;99.90;;;;;;5029229;28;20026;-78
2021/12/03 19:36:52;;;;;;;138.95;58.33;;;-1.30;99.90;;;;;;5028183;28;19905;-78
2021/12/03 19:39:24;;;;;;;123.80;54.30;;;-1.30;99.90;;;;;;5027580;28;20624;-78
2021/12/03 19:47:05;;;;;;;141.80;59.63;;;-1.50;99.90;;;;;;5029225;28;20021;-78
2021/12/03 19:49:43;;;;;;;117.75;47.10;;;-1.50;99.90;;;;;;5029481;28;20508;-78
2021/12/03 19:52:23;;;;;;;93.28;41.72;;;-1.50;99.90;;;;;;5028239;28;20108;-77
2021/12/03 19:54:48;;;;;;;92.93;41.80;;;-1.50;99.90;;;;;;5029808;28;20044;-78
2021/12/03 19:57:14;;;;;;;;;;;-1.60;99.90;;;;;;5046823;28;20531;-79
2021/12/03 19:59:40;;;;;;;71.18;31.05;;;-1.60;99.90;;;;;;5049234;28;19920;-78
2021/12/03 20:02:05;;;;;;;;;;;-1.60;99.90;;;;;;5049784;28;20112;-78
2021/12/03 20:04:31;;;;;;;50.63;22.98;;;-1.50;99.90;;;;;;5049941;28;19909;-78
2021/12/03 20:06:57;;;;;;;;;;;-1.40;99.90;;;;;;5058724;28;20027;-78
2021/12/03 20:09:28;;;;;;;44.17;20.25;;;-1.50;99.90;;;;;;5054231;28;19915;-78
2021/12/03 20:11:57;;;;;;;56.65;23.23;;;-1.60;99.90;;;;;;5048375;28;20033;-79
2021/12/03 20:14:23;;;;;;;48.33;21.17;;;-1.60;99.90;;;;;;5046923;28;20064;-78
2021/12/03 20:17:00;;;;;;;48.72;19.88;;;-1.70;99.90;;;;;;5046886;28;20494;-77
2021/12/03 20:22:15;;;;;;;;;;;-1.60;99.90;;;;;;5048457;28;20044;-78
2021/12/03 20:27:13;;;;;;;16.77;7.82;;;-1.50;99.90;;;;;;5049566;28;20053;-78
2021/12/03 20:29:54;;;;;;;24.40;11.25;;;-1.40;99.90;;;;;;5049588;28;20444;-77
2021/12/03 20:37:24;;;;;;;25.98;9.88;;;-1.20;99.90;;;;;;5047690;28;20732;-78
2021/12/03 20:39:53;;;;;;;24.77;11.20;;;-1.20;99.90;;;;;;5045924;28;20021;-77
2021/12/03 20:50:49;;;;;;;47.78;18.67;;;-1.40;99.90;;;;;;5047414;28;20079;-78
2021/12/03 20:58:54;;;;;;;30.95;11.43;;;-1.40;99.90;;;;;;5048009;28;20032;-78
2021/12/03 21:09:14;;;;;;;5.88;1.50;;;-0.80;99.90;;;;;;5047597;28;20048;-77
2021/12/03 21:11:48;;;;;;;7.25;3.25;;;-0.70;99.90;;;;;;5045866;28;20529;-76
2021/12/03 21:14:18;;;;;;;12.65;5.70;;;-0.70;99.90;;;;;;5047295;28;20053;-77
2021/12/03 21:21:53;;;;;;;7.90;3.58;;;-0.70;99.90;;;;;;5047499;28;20075;-77
2021/12/03 21:24:20;;;;;;;22.45;6.88;;;-0.70;99.90;;;;;;5046252;28;20175;-77
2021/12/03 21:26:47;;;;;;;14.18;5.60;;;-0.80;99.90;;;;;;5046021;28;20028;-77
2021/12/03 21:32:04;;;;;;;3.38;0.90;;;-0.60;99.90;;;;;;5047422;28;20040;-77
2021/12/03 21:40:08;;;;;;;5.30;1.45;;;-0.40;99.90;;;;;;5047561;28;20296;-77
2021/12/03 21:42:35;;;;;;;4.88;1.67;;;-0.40;99.90;;;;;;5045479;28;20029;-77
2021/12/03 21:45:00;;;;;;;6.22;2.88;;;-0.50;99.90;;;;;;5045707;28;20040;-77
2021/12/03 21:47:26;;;;;;;;;;;-0.50;99.90;;;;;;5045791;28;20390;-77
2021/12/03 21:49:52;;;;;;;6.25;1.40;;;-0.50;99.90;;;;;;5046371;28;20772;-78